createdAt,value
2022-09-04T00:01:57.320Z,-20422.06
2022-09-04T00:04:34.511Z,-20418.41
2022-09-04T00:07:19.342Z,-20419.31
2022-09-04T00:09:58.206Z,-20419.47
2022-09-04T00:12:31.412Z,-20420.84
2022-09-04T00:15:05.501Z,-20419.31
2022-09-04T00:17:39.690Z,-20418.72
2022-09-04T00:20:14.001Z,-20420.09
2022-09-04T00:22:53.372Z,-20421.91
2022-09-04T00:25:26.101Z,-20424.03
2022-09-04T00:28:02.018Z,-20425.41
2022-09-04T00:30:30.030Z,-20429.38
2022-09-04T00:33:06.155Z,-20431.06
2022-09-04T00:35:40.961Z,-20433.50
2022-09-04T00:38:14.386Z,-20430.59
2022-09-04T00:40:44.591Z,-20433.63
2022-09-04T00:43:37.381Z,-20432.44
2022-09-04T00:46:49.599Z,-20429.06
2022-09-04T00:49:59.496Z,-20429.97
2022-09-04T00:52:42.594Z,-20425.13
2022-09-04T00:55:28.716Z,-20425.13
2022-09-04T00:58:10.539Z,-20425.41
2022-09-04T01:00:38.316Z,-20425.41
2022-09-04T01:03:25.261Z,-20425.88
2022-09-04T01:06:09.296Z,-20424.34
2022-09-04T01:08:56.642Z,-20424.19
2022-09-04T01:11:37.398Z,-20425.72
2022-09-04T01:14:13.429Z,-20424.03
2022-09-04T01:16:47.553Z,-20424.50
2022-09-04T01:19:31.128Z,-20422.69
2022-09-04T01:22:12.150Z,-20425.41
2022-09-04T01:24:55.401Z,-20424.81
2022-09-04T01:27:28.234Z,-20425.13
2022-09-04T01:30:07.349Z,-20422.38
2022-09-04T01:32:46.726Z,-20421.16
2022-09-04T01:35:27.174Z,-20421.31
2022-09-04T01:38:05.309Z,-20420.84
2022-09-04T01:40:43.142Z,-20418.88
2022-09-04T01:43:14.012Z,-20420.53
2022-09-04T01:46:06.048Z,-20413.84
2022-09-04T01:48:43.625Z,-20412.94
2022-09-04T01:51:25.013Z,-20413.53
2022-09-04T01:54:06.173Z,-20410.66
2022-09-04T01:56:41.288Z,-20407.91
2022-09-04T01:59:21.916Z,-20407.75
2022-09-04T02:01:55.148Z,-20407.31
2022-09-04T02:04:29.978Z,-20406.22
2022-09-04T02:07:04.544Z,-20406.22
2022-09-04T02:09:41.965Z,-20406.06
2022-09-04T02:12:18.998Z,-20404.72
2022-09-04T02:14:56.934Z,-20402.56
2022-09-04T02:17:37.342Z,-20403.78
2022-09-04T02:20:18.071Z,-20404.72
2022-09-04T02:22:55.530Z,-20406.06
2022-09-04T02:25:29.712Z,-20405.31
2022-09-04T02:28:10.230Z,-20408.06
2022-09-04T02:30:54.244Z,-20410.19
2022-09-04T02:33:31.858Z,-20405.94
2022-09-04T02:36:06.734Z,-20405.63
2022-09-04T02:38:44.849Z,-20404.72
2022-09-04T02:41:22.243Z,-20405.78
2022-09-04T02:44:02.986Z,-20405.31
2022-09-04T02:46:43.381Z,-20404.09
2022-09-04T02:49:21.962Z,-20402.88
2022-09-04T02:52:02.002Z,-20402.28
2022-09-04T02:54:49.974Z,-20403.78
2022-09-04T02:57:29.378Z,-20399.97
2022-09-04T03:00:07.196Z,-20400.44
2022-09-04T03:02:40.162Z,-20400.13
2022-09-04T03:05:19.646Z,-20402.72
2022-09-04T03:07:57.314Z,-20405.00
2022-09-04T03:10:32.143Z,-20403.78
2022-09-04T03:13:06.393Z,-20404.41
2022-09-04T03:15:41.405Z,-20398.91
2022-09-04T03:18:19.716Z,-20396.47
2022-09-04T03:20:54.506Z,-20403.03
2022-09-04T03:23:29.424Z,-20405.63
2022-09-04T03:26:22.648Z,-20401.66
2022-09-04T03:29:01.838Z,-20399.22
2022-09-04T03:31:34.514Z,-20395.56
2022-09-04T03:34:18.801Z,-20393.44
2022-09-04T03:37:01.110Z,-20392.38
2022-09-04T03:39:40.089Z,-20390.38
2022-09-04T03:42:17.014Z,-20389.63
2022-09-04T03:44:57.789Z,-20388.56
2022-09-04T03:47:34.443Z,-20388.09
2022-09-04T03:50:13.820Z,-20385.19
2022-09-04T03:52:55.208Z,-20385.34
2022-09-04T03:55:40.086Z,-20384.13
2022-09-04T03:58:19.109Z,-20386.41
2022-09-04T04:00:57.334Z,-20386.88
2022-09-04T04:03:57.153Z,-20386.56
2022-09-04T04:06:37.937Z,-20388.09
2022-09-04T04:09:25.570Z,-20386.41
2022-09-04T04:12:17.310Z,-20385.97
2022-09-04T04:15:01.141Z,-20382.47
2022-09-04T04:17:53.014Z,-20383.97
2022-09-04T04:20:34.875Z,-20383.69
2022-09-04T04:23:24.153Z,-20383.06
2022-09-04T04:26:06.560Z,-20384.91
2022-09-04T04:29:13.807Z,-20389.78
2022-09-04T04:32:11.263Z,-20387.63
2022-09-04T04:34:53.932Z,-20385.19
2022-09-04T04:37:32.177Z,-20383.97
2022-09-04T04:40:09.430Z,-20381.38
2022-09-04T04:42:47.552Z,-20382.75
2022-09-04T04:45:42.292Z,-20384.91
2022-09-04T04:48:38.760Z,-20384.13
2022-09-04T04:51:24.368Z,-20382.16
2022-09-04T04:53:58.774Z,-20384.59
2022-09-04T04:56:35.066Z,-20384.44
2022-09-04T04:59:20.593Z,-20383.97
2022-09-04T05:01:56.870Z,-20386.28
2022-09-04T05:04:36.972Z,-20386.56
2022-09-04T05:07:11.774Z,-20386.41
2022-09-04T05:09:48.866Z,-20386.28
2022-09-04T05:12:30.159Z,-20384.13
2022-09-04T05:15:04.789Z,-20389.16
2022-09-04T05:17:38.854Z,-20387.03
2022-09-04T05:20:24.708Z,-20386.13
2022-09-04T05:23:01.640Z,-20386.56
2022-09-04T05:25:39.234Z,-20384.91
2022-09-04T05:28:23.176Z,-20387.94
2022-09-04T05:31:02.447Z,-20388.25
2022-09-04T05:33:36.742Z,-20386.41
2022-09-04T05:36:13.547Z,-20385.50
2022-09-04T05:38:51.874Z,-20388.41
2022-09-04T05:41:34.802Z,-20390.69
2022-09-04T05:44:16.782Z,-20396.00
2022-09-04T05:46:59.176Z,-20401.97
2022-09-04T05:49:39.163Z,-20397.69
2022-09-04T05:52:31.791Z,-20393.59
2022-09-04T05:55:21.320Z,-20398.31
2022-09-04T05:58:03.256Z,-20411.72
2022-09-04T06:00:42.623Z,-20427.25
2022-09-04T06:03:27.910Z,-20427.53
2022-09-04T06:06:07.394Z,-20439.41
2022-09-04T06:09:24.023Z,-20447.34
2022-09-04T06:12:06.162Z,-20445.97
2022-09-04T06:14:54.386Z,-20469.09
2022-09-04T06:17:36.378Z,-20467.13
2022-09-04T06:20:24.661Z,-20484.44
2022-09-04T06:23:26.382Z,-20479.88
2022-09-04T06:26:23.485Z,-20476.69
2022-09-04T06:29:09.985Z,-20492.97
2022-09-04T06:31:57.870Z,-20509.50
2022-09-04T06:34:45.098Z,-20525.31
2022-09-04T06:37:21.838Z,-20527.13
2022-09-04T06:40:08.378Z,-20539.88
2022-09-04T06:42:51.113Z,-20549.44
2022-09-04T06:45:30.493Z,-20570.69
2022-09-04T06:48:09.365Z,-20591.44
2022-09-04T06:50:52.687Z,-20601.00
2022-09-04T06:53:30.982Z,-20604.00
2022-09-04T06:56:11.265Z,-20620.69
2022-09-04T06:59:19.866Z,-20607.03
2022-09-04T07:02:01.103Z,-20625.97
2022-09-04T07:04:41.126Z,-20656.09
2022-09-04T07:07:21.774Z,-20655.03
2022-09-04T07:09:57.650Z,-20663.19
2022-09-04T07:12:49.102Z,-20652.91
2022-09-04T07:15:57.071Z,-20671.06
2022-09-04T07:18:52.269Z,-20628.84
2022-09-04T07:21:27.819Z,-20608.25
2022-09-04T07:24:06.749Z,-20604.78
2022-09-04T07:26:40.678Z,-20583.56
2022-09-04T07:29:27.866Z,-20580.38
2022-09-04T07:32:02.371Z,-20560.97
2022-09-04T07:34:40.440Z,-20558.25
2022-09-04T07:37:27.085Z,-20542.91
2022-09-04T07:40:12.860Z,-20562.03
2022-09-04T07:42:48.208Z,-20557.34
2022-09-04T07:45:26.318Z,-20556.13
2022-09-04T07:48:05.869Z,-20563.09
2022-09-04T07:50:40.133Z,-20549.44
2022-09-04T07:53:24.960Z,-20551.88
2022-09-04T07:56:01.648Z,-20541.84
2022-09-04T07:58:55.708Z,-20550.06
2022-09-04T08:01:58.643Z,-20561.28
2022-09-04T08:04:47.258Z,-20563.41
2022-09-04T08:07:21.351Z,-20567.66
2022-09-04T08:10:13.246Z,-20561.88
2022-09-04T08:13:04.598Z,-20568.56
2022-09-04T08:15:43.285Z,-20579.03
2022-09-04T08:18:36.901Z,-20573.09
2022-09-04T08:21:17.912Z,-20556.72
2022-09-04T08:24:13.915Z,-20562.50
2022-09-04T08:26:50.620Z,-20563.09
2022-09-04T08:29:37.313Z,-20562.19
2022-09-04T08:32:22.406Z,-20571.28
2022-09-04T08:35:13.306Z,-20564.59
2022-09-04T08:37:57.430Z,-20564.16
2022-09-04T08:41:04.643Z,-20571.91
2022-09-04T08:43:52.079Z,-20572.50
2022-09-04T08:46:50.257Z,-20595.53
2022-09-04T08:49:58.288Z,-20601.75
2022-09-04T08:53:15.934Z,-20621.44
2022-09-04T08:55:56.740Z,-20647.75
2022-09-04T08:58:57.802Z,-20645.34
2022-09-04T09:02:03.417Z,-20654.41
2022-09-04T09:05:18.583Z,-20659.72
2022-09-04T09:08:37.290Z,-20681.19
2022-09-04T09:11:49.958Z,-20654.88
2022-09-04T09:14:56.191Z,-20638.53
2022-09-04T09:17:38.454Z,-20666.66
2022-09-04T09:20:28.289Z,-20680.88
2022-09-04T09:23:18.772Z,-20688.88
2022-09-04T09:25:57.417Z,-20717.13
2022-09-04T09:28:58.403Z,-20729.94
2022-09-04T09:32:03.541Z,-20730.09
2022-09-04T09:35:05.057Z,-20733.56
2022-09-04T09:38:04.498Z,-20734.63
2022-09-04T09:41:08.368Z,-20747.28
2022-09-04T09:44:05.042Z,-20744.28
2022-09-04T09:47:05.791Z,-20743.53
2022-09-04T09:50:10.242Z,-20771.25
2022-09-04T09:53:12.351Z,-20777.44
2022-09-04T09:56:04.748Z,-20763.13
2022-09-04T09:58:55.562Z,-20745.47
2022-09-04T10:01:44.909Z,-20752.56
2022-09-04T10:04:42.074Z,-20742.00
2022-09-04T10:07:48.894Z,-20754.53
2022-09-04T10:10:48.022Z,-20757.25
2022-09-04T10:13:57.959Z,-20768.53
2022-09-04T10:17:00.591Z,-20779.25
2022-09-04T10:19:56.601Z,-20772.00
2022-09-04T10:22:49.362Z,-20785.84
2022-09-04T10:25:42.032Z,-20783.75
2022-09-04T10:28:40.781Z,-20837.47
2022-09-04T10:31:38.150Z,-20829.03
2022-09-04T10:34:39.701Z,-20827.53
2022-09-04T10:37:25.687Z,-20817.47
2022-09-04T10:40:25.514Z,-20781.03
2022-09-04T10:43:12.326Z,-20744.72
2022-09-04T10:45:45.582Z,-20732.81
2022-09-04T10:48:39.290Z,-20737.34
2022-09-04T10:51:39.601Z,-20736.72
2022-09-04T10:54:43.202Z,-20729.94
2022-09-04T10:57:28.297Z,-20721.66
2022-09-04T11:00:07.842Z,-20730.09
2022-09-04T11:03:03.619Z,-20730.84
2022-09-04T11:06:11.062Z,-20730.09
2022-09-04T11:08:55.394Z,-20718.63
2022-09-04T11:11:45.465Z,-20728.44
2022-09-04T11:14:51.865Z,-20723.75
2022-09-04T11:17:55.303Z,-20710.19
2022-09-04T11:20:59.495Z,-20726.19
2022-09-04T11:24:02.642Z,-20730.41
2022-09-04T11:26:57.553Z,-20736.13
2022-09-04T11:29:47.743Z,-20728.28
2022-09-04T11:32:52.754Z,-20735.81
2022-09-04T11:35:46.648Z,-20700.22
2022-09-04T11:38:25.720Z,-20702.94
2022-09-04T11:41:32.803Z,-20716.66
2022-09-04T11:44:27.798Z,-20695.81
2022-09-04T11:47:24.471Z,-20700.97
2022-09-04T11:50:21.520Z,-20713.50
2022-09-04T11:53:13.852Z,-20711.38
2022-09-04T11:56:13.089Z,-20713.19
2022-09-04T11:59:05.845Z,-20716.50
2022-09-04T12:01:53.699Z,-20720.44
2022-09-04T12:04:40.567Z,-20720.44
2022-09-04T12:07:20.870Z,-20734.00
2022-09-04T12:10:13.912Z,-20722.41
2022-09-04T12:13:15.187Z,-20737.63
2022-09-04T12:16:01.591Z,-20750.91
2022-09-04T12:18:59.019Z,-20768.69
2022-09-04T12:21:53.729Z,-20765.22
2022-09-04T12:25:03.559Z,-20762.50
2022-09-04T12:28:15.761Z,-20776.97
2022-09-04T12:30:58.455Z,-20789.47
2022-09-04T12:33:56.709Z,-20798.81
2022-09-04T12:37:01.853Z,-20813.72
2022-09-04T12:40:09.296Z,-20809.50
2022-09-04T12:42:44.946Z,-20787.53
2022-09-04T12:45:22.593Z,-20764.03
2022-09-04T12:47:57.444Z,-20752.41
2022-09-04T12:50:33.673Z,-20755.44
2022-09-04T12:53:25.762Z,-20732.22
2022-09-04T12:56:05.737Z,-20738.69
2022-09-04T12:58:52.237Z,-20733.72
2022-09-04T13:01:32.136Z,-20732.81
2022-09-04T13:04:12.830Z,-20742.78
2022-09-04T13:06:53.469Z,-20743.97
2022-09-04T13:09:30.702Z,-20752.41
2022-09-04T13:12:13.174Z,-20747.59
2022-09-04T13:15:07.730Z,-20745.94
2022-09-04T13:17:45.633Z,-20742.16
2022-09-04T13:20:20.834Z,-20740.06
2022-09-04T13:23:05.415Z,-20754.38
2022-09-04T13:25:48.223Z,-20774.72
2022-09-04T13:28:25.618Z,-20781.03
2022-09-04T13:31:03.374Z,-20796.41
2022-09-04T13:33:49.318Z,-20793.69
2022-09-04T13:36:28.094Z,-20804.53
2022-09-04T13:39:23.263Z,-20812.06
2022-09-04T13:42:04.715Z,-20811.44
2022-09-04T13:44:57.675Z,-20808.44
2022-09-04T13:47:32.619Z,-20801.66
2022-09-04T13:50:10.023Z,-20804.53
2022-09-04T13:52:45.589Z,-20817.47
2022-09-04T13:55:19.027Z,-20813.84
2022-09-04T13:57:57.440Z,-20800.00
2022-09-04T14:00:29.422Z,-20797.31
2022-09-04T14:03:01.463Z,-20796.56
2022-09-04T14:05:32.602Z,-20818.06
2022-09-04T14:08:03.941Z,-20815.06
2022-09-04T14:11:06.859Z,-20825.59
2022-09-04T14:13:51.617Z,-20836.56
2022-09-04T14:16:23.734Z,-20840.63
2022-09-04T14:19:15.909Z,-20829.19
2022-09-04T14:22:02.454Z,-20832.66
2022-09-04T14:24:38.424Z,-20831.59
2022-09-04T14:27:14.888Z,-20846.19
2022-09-04T14:29:52.386Z,-20840.78
2022-09-04T14:32:25.044Z,-20837.63
2022-09-04T14:35:02.786Z,-20827.69
2022-09-04T14:37:39.035Z,-20828.75
2022-09-04T14:40:10.577Z,-20826.34
2022-09-04T14:42:44.957Z,-20837.31
2022-09-04T14:45:18.190Z,-20836.72
2022-09-04T14:47:53.629Z,-20832.81
2022-09-04T14:50:23.445Z,-20823.03
2022-09-04T14:52:53.806Z,-20803.31
2022-09-04T14:55:25.623Z,-20781.03
2022-09-04T14:57:57.624Z,-20786.75
2022-09-04T15:00:25.166Z,-20787.06
2022-09-04T15:03:02.259Z,-20780.44
2022-09-04T15:05:32.012Z,-20785.25
2022-09-04T15:08:01.029Z,-20784.97
2022-09-04T15:10:31.499Z,-20795.50
2022-09-04T15:13:20.216Z,-20804.53
2022-09-04T15:15:51.291Z,-20810.84
2022-09-04T15:18:26.625Z,-20809.78
2022-09-04T15:20:56.648Z,-20802.88
2022-09-04T15:23:28.015Z,-20806.03
2022-09-04T15:26:02.852Z,-20804.81
2022-09-04T15:28:38.309Z,-20811.31
2022-09-04T15:31:15.615Z,-20806.19
2022-09-04T15:33:46.356Z,-20797.31
2022-09-04T15:36:17.081Z,-20803.03
2022-09-04T15:38:50.585Z,-20797.00
2022-09-04T15:41:22.518Z,-20784.22
2022-09-04T15:43:52.039Z,-20785.84
2022-09-04T15:46:25.206Z,-20790.38
2022-09-04T15:48:58.630Z,-20783.75
2022-09-04T15:51:30.464Z,-20795.66
2022-09-04T15:54:16.899Z,-20795.34
2022-09-04T15:56:47.242Z,-20797.91
2022-09-04T15:59:18.182Z,-20794.59
2022-09-04T16:01:49.656Z,-20790.53
2022-09-04T16:04:26.277Z,-20787.38
2022-09-04T16:06:57.750Z,-20784.97
2022-09-04T16:09:28.836Z,-20775.63
2022-09-04T16:12:01.163Z,-20778.03
2022-09-04T16:14:30.985Z,-20786.16
2022-09-04T16:17:02.116Z,-20780.91
2022-09-04T16:19:35.550Z,-20782.84
2022-09-04T16:22:08.294Z,-20777.28
2022-09-04T16:24:40.335Z,-20775.63
2022-09-04T16:27:09.454Z,-20773.97
2022-09-04T16:29:38.925Z,-20766.28
2022-09-04T16:32:09.578Z,-20769.28
2022-09-04T16:34:41.133Z,-20771.84
2022-09-04T16:37:11.606Z,-20762.22
2022-09-04T16:39:45.640Z,-20762.97
2022-09-04T16:42:18.597Z,-20764.94
2022-09-04T16:44:48.977Z,-20766.88
2022-09-04T16:47:22.633Z,-20766.72
2022-09-04T16:49:55.764Z,-20765.22
2022-09-04T16:52:31.881Z,-20763.88
2022-09-04T16:55:06.381Z,-20753.63
2022-09-04T16:57:38.257Z,-20750.47
2022-09-04T17:00:09.435Z,-20751.81
2022-09-04T17:02:44.118Z,-20746.09
2022-09-04T17:05:18.821Z,-20748.50
2022-09-04T17:07:50.323Z,-20744.28
2022-09-04T17:10:25.122Z,-20736.44
2022-09-04T17:12:56.526Z,-20736.28
2022-09-04T17:15:27.879Z,-20735.53
2022-09-04T17:17:57.079Z,-20733.72
2022-09-04T17:21:55.210Z,-20730.41
2022-09-04T17:29:01.229Z,-20723.75
2022-09-04T17:29:12.103Z,-20718.94
2022-09-04T17:31:52.990Z,-20697.63
2022-09-04T17:40:00.453Z,-20685.72
2022-09-04T17:40:43.406Z,-20679.38
2022-09-04T17:40:51.889Z,-20669.38
2022-09-04T17:43:22.106Z,-20662.13
2022-09-04T17:46:02.627Z,-20658.50
2022-09-04T17:48:33.284Z,-20648.53
2022-09-04T17:51:03.621Z,-20638.09
2022-09-04T17:53:35.224Z,-20630.97
2022-09-04T17:56:09.260Z,-20626.72
2022-09-04T17:58:43.868Z,-20617.03
2022-09-04T18:01:17.940Z,-20611.91
2022-09-04T18:04:21.773Z,-20607.50
2022-09-04T18:06:55.667Z,-20601.59
2022-09-04T18:09:32.998Z,-20597.06
2022-09-04T18:12:11.012Z,-20593.13
2022-09-04T18:14:55.661Z,-20591.16
2022-09-04T18:17:45.068Z,-20587.50
2022-09-04T18:20:24.099Z,-20584.63
2022-09-04T18:23:20.708Z,-20579.16
2022-09-04T18:25:54.826Z,-20574.63
2022-09-04T18:28:27.919Z,-20570.22
2022-09-04T18:37:05.871Z,-20565.81
2022-09-04T18:37:16.263Z,-20561.88
2022-09-04T18:37:21.498Z,-20559.16
2022-09-04T18:39:51.585Z,-20555.06
2022-09-04T18:50:28.732Z,-20555.06
2022-09-04T18:50:32.849Z,-20553.53
2022-09-04T18:50:38.074Z,-20548.69
2022-09-04T18:51:21.099Z,-20546.41
2022-09-04T18:53:53.952Z,-20542.75
2022-09-04T18:56:27.462Z,-20539.13
2022-09-04T18:59:03.126Z,-20536.84
2022-09-04T19:01:41.181Z,-20533.66
2022-09-04T19:04:41.504Z,-20529.09
2022-09-04T19:07:12.775Z,-20526.97
2022-09-04T19:10:02.127Z,-20525.75
2022-09-04T19:12:47.678Z,-20523.03
2022-09-04T19:15:36.832Z,-20519.84
2022-09-04T19:18:15.418Z,-20516.19
2022-09-04T19:20:49.612Z,-20515.75
2022-09-04T19:23:29.167Z,-20515.44
2022-09-04T19:26:02.962Z,-20513.63
2022-09-04T19:28:50.922Z,-20511.34
2022-09-04T19:31:32.025Z,-20510.56
2022-09-04T19:34:08.769Z,-20506.63
2022-09-04T19:36:40.464Z,-20507.38
2022-09-04T19:45:57.101Z,-20504.19
2022-09-04T19:45:58.993Z,-20502.22
2022-09-04T19:46:13.885Z,-20501.47
2022-09-04T19:48:11.610Z,-20497.22
2022-09-04T19:53:30.005Z,-20497.22
2022-09-04T19:53:46.941Z,-20494.47
2022-09-04T19:56:29.483Z,-20493.88
2022-09-04T19:59:04.571Z,-20493.25
2022-09-04T20:01:42.125Z,-20490.53
2022-09-04T20:04:23.758Z,-20489.78
2022-09-04T20:06:55.520Z,-20486.88
2022-09-04T20:09:29.610Z,-20487.47
2022-09-04T20:12:11.250Z,-20485.81
2022-09-04T20:14:43.381Z,-20486.25
2022-09-04T20:17:27.301Z,-20483.22
2022-09-04T20:20:00.475Z,-20481.72
2022-09-04T20:22:34.198Z,-20479.28
2022-09-04T20:25:26.131Z,-20479.56
2022-09-04T20:27:58.740Z,-20478.53
2022-09-04T20:30:27.157Z,-20476.22
2022-09-04T20:33:02.199Z,-20476.22
2022-09-04T20:35:40.131Z,-20475.31
2022-09-04T20:38:23.360Z,-20474.41
2022-09-04T20:40:55.463Z,-20472.88
2022-09-04T20:43:32.073Z,-20472.88
2022-09-04T20:50:50.189Z,-20467.72
2022-09-04T20:52:54.032Z,-20466.81
2022-09-04T20:52:54.416Z,-20468.94
2022-09-04T20:55:34.469Z,-20464.97
2022-09-04T21:03:08.057Z,-20464.69
2022-09-04T21:03:21.499Z,-20463.63
2022-09-04T21:04:04.085Z,-20460.72
2022-09-04T21:06:38.275Z,-20458.28
2022-09-04T21:09:18.414Z,-20456.91
2022-09-04T21:11:48.673Z,-20456.16
2022-09-04T21:14:26.977Z,-20454.03
2022-09-04T21:17:34.822Z,-20451.00
2022-09-04T21:20:27.061Z,-20449.78
2022-09-04T21:23:21.676Z,-20449.78
2022-09-04T21:26:04.900Z,-20448.25
2022-09-04T21:28:50.623Z,-20445.19
2022-09-04T21:31:37.632Z,-20445.06
2022-09-04T21:34:43.245Z,-20444.91
2022-09-04T21:37:18.647Z,-20443.53
2022-09-04T21:40:43.254Z,-20443.38
2022-09-04T21:43:34.064Z,-20442.47
2022-09-04T21:46:20.637Z,-20441.41
2022-09-04T21:49:10.417Z,-20438.22
2022-09-04T21:52:05.770Z,-20439.72
2022-09-04T21:59:22.663Z,-20437.59
2022-09-04T22:02:27.021Z,-20436.53
2022-09-04T22:02:43.612Z,-20435.63
2022-09-04T22:04:08.946Z,-20433.50
2022-09-04T22:08:51.134Z,-20434.25
2022-09-04T22:13:29.102Z,-20431.81
2022-09-04T22:13:41.681Z,-20431.81
2022-09-04T22:16:01.802Z,-20430.91
2022-09-04T22:19:01.757Z,-20429.38
2022-09-04T22:21:48.859Z,-20430.59
2022-09-04T22:24:43.717Z,-20427.84
2022-09-04T22:28:07.923Z,-20426.78
2022-09-04T22:30:39.569Z,-20425.25
2022-09-04T22:34:11.773Z,-20424.66
2022-09-04T22:37:21.006Z,-20423.44
2022-09-04T22:40:18.192Z,-20421.91
2022-09-04T22:42:51.487Z,-20420.84
2022-09-04T22:45:40.865Z,-20420.25
2022-09-04T22:48:36.849Z,-20422.53
2022-09-04T22:51:24.393Z,-20421.00
2022-09-04T22:54:11.262Z,-20418.72
2022-09-04T22:56:53.436Z,-20417.50
2022-09-04T22:59:35.141Z,-20417.34
2022-09-04T23:02:54.153Z,-20416.59
2022-09-04T23:05:40.870Z,-20416.59
2022-09-04T23:13:48.100Z,-20414.75
2022-09-04T23:13:56.344Z,-20414.75
2022-09-04T23:14:56.133Z,-20413.84
2022-09-04T23:19:17.414Z,-20411.09
2022-09-04T23:26:33.874Z,-20409.28
2022-09-04T23:26:50.903Z,-20410.03
2022-09-04T23:27:28.809Z,-20409.28
2022-09-04T23:30:25.802Z,-20407.44
2022-09-04T23:33:31.727Z,-20407.59
2022-09-04T23:36:22.689Z,-20405.31
2022-09-04T23:39:54.575Z,-20407.16
2022-09-04T23:42:47.294Z,-20406.22
2022-09-04T23:45:28.715Z,-20406.38
2022-09-04T23:48:13.501Z,-20406.69
2022-09-04T23:50:52.906Z,-20401.97
2022-09-04T23:53:30.186Z,-20399.84
2022-09-04T23:56:08.609Z,-20402.72
2022-09-04T23:59:09.235Z,-20401.06
